LDRI

Rijeka Airport

Rijeka, Croatia
TAF LDRI 260525Z 2606/2706 VRB02KT CAVOK TX22/2612Z TN13/2704Z BECMG 2619/2621 06012KT TEMPO 2702/2706 06005KT
Issued Valid From Valid To
Apr-26 @ 05:25 UTC
(26 minutes ago)
Apr-26 @ 06:00 UTC
(in 9 minutes)
Apr-27 @ 06:00 UTC
(in 24 hours)
Apr-26 @ 06:00 to Apr-26 @ 19:00
TAF LDRI 260525Z 2606/2706 VRB02KT CAVOK TX22/2612Z TN13/2704Z
Wind Visibility Clouds
Variable at 2 knots 10,000+ meters
  • No significant clouds
Becoming Apr-26 @ 19:00 to Apr-27 @ 06:00
BECMG 2619/2621 06012KT
Wind Visibility Clouds
60° at 12 knots 10,000+ meters
  • No significant clouds
Temporary Apr-27 @ 02:00 to Apr-27 @ 06:00
TEMPO 2702/2706 06005KT
Wind
60° at 5 knots
TAF LDRI 260525Z 2606/2706 VRB02KT CAVOK TX22/2612Z TN13/2704Z BECMG 2619/2621 06012KT TEMPO 2702/2706 06005KT
Issued Apr-26 @ 05:25 UTC
(26 minutes ago)
Valid From Apr-26 @ 06:00 UTC
(in 9 minutes)
Valid To Apr-27 @ 06:00 UTC
(in 24 hours)
Apr-26 @ 06:00 - Apr-26 @ 19:00
Wind Visibility
Variable at 2 knots 10,000+ meters
Clouds
  • No significant clouds
Becoming Apr-26 @ 19:00 - Apr-27 @ 06:00
Wind Visibility
60° at 12 knots 10,000+ meters
Clouds
  • No significant clouds
Temporary Apr-27 @ 02:00 - Apr-27 @ 06:00
Wind
60° at 5 knots